sensor_id;sensor_type;location;lat;lon;timestamp;pressure;altitude;pressure_sealevel;temperature;humidity
77303;BME280;66363;49.828;7.856;2023-05-19T00:00:32;100915.31;;;8.60;70.43
77303;BME280;66363;49.828;7.856;2023-05-19T00:03:00;100906.13;;;8.50;70.49
77303;BME280;66363;49.828;7.856;2023-05-19T00:05:26;100902.94;;;8.43;69.90
77303;BME280;66363;49.828;7.856;2023-05-19T00:07:53;100914.63;;;8.57;69.50
77303;BME280;66363;49.828;7.856;2023-05-19T00:10:23;100893.34;;;8.41;69.80
77303;BME280;66363;49.828;7.856;2023-05-19T00:12:49;100909.94;;;8.44;70.76
77303;BME280;66363;49.828;7.856;2023-05-19T00:15:16;100909.88;;;8.46;70.86
77303;BME280;66363;49.828;7.856;2023-05-19T00:17:41;100911.22;;;8.36;71.46
77303;BME280;66363;49.828;7.856;2023-05-19T00:20:10;100910.59;;;8.31;70.84
77303;BME280;66363;49.828;7.856;2023-05-19T00:22:35;100901.59;;;8.16;71.85
77303;BME280;66363;49.828;7.856;2023-05-19T00:25:01;100909.75;;;8.11;71.25
77303;BME280;66363;49.828;7.856;2023-05-19T00:27:27;100887.03;;;8.07;70.50
77303;BME280;66363;49.828;7.856;2023-05-19T00:29:52;100904.88;;;8.21;71.75
77303;BME280;66363;49.828;7.856;2023-05-19T00:32:18;100910.66;;;8.29;70.36
77303;BME280;66363;49.828;7.856;2023-05-19T00:34:43;100907.09;;;8.30;69.88
77303;BME280;66363;49.828;7.856;2023-05-19T00:37:10;100907.88;;;8.32;71.23
77303;BME280;66363;49.828;7.856;2023-05-19T00:39:36;100901.25;;;8.24;71.64
77303;BME280;66363;49.828;7.856;2023-05-19T00:42:02;100887.81;;;8.09;72.24
77303;BME280;66363;49.828;7.856;2023-05-19T00:44:28;100898.47;;;8.08;72.76
77303;BME280;66363;49.828;7.856;2023-05-19T00:46:53;100894.09;;;8.07;72.82
77303;BME280;66363;49.828;7.856;2023-05-19T00:49:19;100886.16;;;8.07;73.05
77303;BME280;66363;49.828;7.856;2023-05-19T00:51:45;100884.38;;;8.07;72.30
77303;BME280;66363;49.828;7.856;2023-05-19T00:54:12;100878.78;;;7.96;72.57
77303;BME280;66363;49.828;7.856;2023-05-19T00:56:38;100870.34;;;7.88;72.77
77303;BME280;66363;49.828;7.856;2023-05-19T00:59:03;100853.38;;;7.75;73.23
77303;BME280;66363;49.828;7.856;2023-05-19T01:01:29;100869.94;;;7.78;72.94
77303;BME280;66363;49.828;7.856;2023-05-19T01:03:55;100886.66;;;7.79;73.57
77303;BME280;66363;49.828;7.856;2023-05-19T01:06:21;100878.16;;;7.72;73.04
77303;BME280;66363;49.828;7.856;2023-05-19T01:08:47;100872.88;;;7.72;73.57
77303;BME280;66363;49.828;7.856;2023-05-19T01:11:14;100875.91;;;7.82;73.13
77303;BME280;66363;49.828;7.856;2023-05-19T01:13:39;100884.28;;;7.73;72.89
77303;BME280;66363;49.828;7.856;2023-05-19T01:16:09;100864.44;;;7.64;73.26
77303;BME280;66363;49.828;7.856;2023-05-19T01:18:43;100876.22;;;7.76;73.85
77303;BME280;66363;49.828;7.856;2023-05-19T01:21:32;100868.22;;;7.59;74.85
77303;BME280;66363;49.828;7.856;2023-05-19T01:24:18;100870.00;;;7.58;73.95
77303;BME280;66363;49.828;7.856;2023-05-19T01:32:43;100861.91;;;7.24;75.40
77303;BME280;66363;49.828;7.856;2023-05-19T01:35:11;100881.94;;;7.28;75.69
77303;BME280;66363;49.828;7.856;2023-05-19T01:37:37;100863.31;;;7.12;75.19
77303;BME280;66363;49.828;7.856;2023-05-19T01:40:04;100885.88;;;7.19;75.83
77303;BME280;66363;49.828;7.856;2023-05-19T01:42:31;100862.94;;;7.01;75.57
77303;BME280;66363;49.828;7.856;2023-05-19T01:44:57;100876.38;;;7.15;75.26
77303;BME280;66363;49.828;7.856;2023-05-19T01:47:23;100877.38;;;7.12;76.14
77303;BME280;66363;49.828;7.856;2023-05-19T01:49:50;100877.38;;;7.12;75.71
77303;BME280;66363;49.828;7.856;2023-05-19T01:52:16;100897.56;;;7.13;75.91
77303;BME280;66363;49.828;7.856;2023-05-19T01:54:41;100889.84;;;7.09;75.57
77303;BME280;66363;49.828;7.856;2023-05-19T01:57:15;100891.47;;;7.11;76.41
77303;BME280;66363;49.828;7.856;2023-05-19T01:59:51;100877.19;;;6.97;75.88
77303;BME280;66363;49.828;7.856;2023-05-19T02:02:25;100895.47;;;7.01;76.30
77303;BME280;66363;49.828;7.856;2023-05-19T02:04:59;100894.00;;;6.94;76.01
77303;BME280;66363;49.828;7.856;2023-05-19T02:07:33;100880.41;;;6.83;76.91
77303;BME280;66363;49.828;7.856;2023-05-19T02:10:04;100888.53;;;6.78;77.23
77303;BME280;66363;49.828;7.856;2023-05-19T02:12:33;100896.19;;;6.85;76.80
77303;BME280;66363;49.828;7.856;2023-05-19T02:15:04;100891.88;;;6.82;77.22
77303;BME280;66363;49.828;7.856;2023-05-19T02:17:32;100893.66;;;6.81;77.02
77303;BME280;66363;49.828;7.856;2023-05-19T02:20:00;100876.59;;;6.70;77.63
77303;BME280;66363;49.828;7.856;2023-05-19T02:22:26;100895.19;;;6.67;78.16
77303;BME280;66363;49.828;7.856;2023-05-19T02:24:52;100888.59;;;6.77;78.04
77303;BME280;66363;49.828;7.856;2023-05-19T02:27:17;100897.75;;;6.68;77.89
77303;BME280;66363;49.828;7.856;2023-05-19T02:29:43;100887.34;;;6.65;78.44
77303;BME280;66363;49.828;7.856;2023-05-19T02:32:10;100881.59;;;6.56;78.40
77303;BME280;66363;49.828;7.856;2023-05-19T02:34:35;100886.59;;;6.62;78.77
77303;BME280;66363;49.828;7.856;2023-05-19T02:37:03;100870.47;;;6.49;78.36
77303;BME280;66363;49.828;7.856;2023-05-19T02:39:28;100877.34;;;6.52;78.69
77303;BME280;66363;49.828;7.856;2023-05-19T02:41:54;100872.16;;;6.50;78.61
77303;BME280;66363;49.828;7.856;2023-05-19T02:44:20;100881.88;;;6.50;78.88
77303;BME280;66363;49.828;7.856;2023-05-19T02:46:45;100872.78;;;6.35;79.39
77303;BME280;66363;49.828;7.856;2023-05-19T02:49:11;100874.56;;;6.34;79.35
77303;BME280;66363;49.828;7.856;2023-05-19T02:51:36;100881.88;;;6.28;79.95
77303;BME280;66363;49.828;7.856;2023-05-19T02:54:04;100876.28;;;6.35;79.47
77303;BME280;66363;49.828;7.856;2023-05-19T02:56:29;100872.06;;;6.31;79.01
77303;BME280;66363;49.828;7.856;2023-05-19T02:58:55;100869.03;;;6.20;79.88
77303;BME280;66363;49.828;7.856;2023-05-19T03:01:20;100877.50;;;6.27;79.64
77303;BME280;66363;49.828;7.856;2023-05-19T03:03:46;100874.00;;;6.26;79.43
77303;BME280;66363;49.828;7.856;2023-05-19T03:06:12;100851.00;;;6.09;80.12
77303;BME280;66363;49.828;7.856;2023-05-19T03:08:37;100876.72;;;6.25;79.89
77303;BME280;66363;49.828;7.856;2023-05-19T03:11:04;100874.47;;;6.16;80.08
77303;BME280;66363;49.828;7.856;2023-05-19T03:13:30;100869.63;;;6.05;80.64
77303;BME280;66363;49.828;7.856;2023-05-19T03:15:56;100873.91;;;6.07;80.28
77303;BME280;66363;49.828;7.856;2023-05-19T03:18:21;100843.13;;;5.86;80.42
77303;BME280;66363;49.828;7.856;2023-05-19T03:20:47;100875.06;;;6.00;80.71
77303;BME280;66363;49.828;7.856;2023-05-19T03:23:13;100858.41;;;6.00;80.28
77303;BME280;66363;49.828;7.856;2023-05-19T03:25:38;100867.31;;;5.97;80.83
77303;BME280;66363;49.828;7.856;2023-05-19T03:28:05;100852.97;;;5.81;81.07
77303;BME280;66363;49.828;7.856;2023-05-19T03:30:31;100878.94;;;5.92;81.62
77303;BME280;66363;49.828;7.856;2023-05-19T03:32:57;100876.44;;;5.89;81.34
77303;BME280;66363;49.828;7.856;2023-05-19T03:35:22;100881.09;;;5.80;81.90
77303;BME280;66363;49.828;7.856;2023-05-19T03:37:48;100859.72;;;5.66;81.41
77303;BME280;66363;49.828;7.856;2023-05-19T03:40:13;100876.56;;;5.84;81.81
77303;BME280;66363;49.828;7.856;2023-05-19T03:42:39;100877.72;;;5.77;81.86
77303;BME280;66363;49.828;7.856;2023-05-19T03:45:07;100880.34;;;5.77;82.07
77303;BME280;66363;49.828;7.856;2023-05-19T03:47:33;100877.59;;;5.80;81.99
77303;BME280;66363;49.828;7.856;2023-05-19T03:49:58;100873.03;;;5.85;82.29
77303;BME280;66363;49.828;7.856;2023-05-19T03:52:24;100870.56;;;5.80;81.85
77303;BME280;66363;49.828;7.856;2023-05-19T03:54:50;100850.03;;;5.67;82.07
77303;BME280;66363;49.828;7.856;2023-05-19T03:57:15;100874.84;;;5.83;82.03
77303;BME280;66363;49.828;7.856;2023-05-19T03:59:41;100873.44;;;5.74;82.62
77303;BME280;66363;49.828;7.856;2023-05-19T04:02:08;100863.28;;;5.65;82.88
77303;BME280;66363;49.828;7.856;2023-05-19T04:04:34;100869.28;;;5.69;82.21
77303;BME280;66363;49.828;7.856;2023-05-19T04:06:59;100861.31;;;5.70;82.10
77303;BME280;66363;49.828;7.856;2023-05-19T04:09:25;100872.63;;;5.72;82.16
77303;BME280;66363;49.828;7.856;2023-05-19T04:11:51;100881.94;;;5.81;81.87
77303;BME280;66363;49.828;7.856;2023-05-19T04:14:17;100883.66;;;5.82;81.97
77303;BME280;66363;49.828;7.856;2023-05-19T04:16:43;100889.09;;;5.77;82.32
77303;BME280;66363;49.828;7.856;2023-05-19T04:19:10;100883.91;;;5.76;82.00
77303;BME280;66363;49.828;7.856;2023-05-19T04:21:36;100891.81;;;5.76;82.27
77303;BME280;66363;49.828;7.856;2023-05-19T04:24:01;100881.63;;;5.67;82.36
77303;BME280;66363;49.828;7.856;2023-05-19T04:26:27;100871.34;;;5.61;82.35
77303;BME280;66363;49.828;7.856;2023-05-19T04:28:53;100887.28;;;5.79;82.04
77303;BME280;66363;49.828;7.856;2023-05-19T04:31:19;100883.84;;;5.77;81.94
77303;BME280;66363;49.828;7.856;2023-05-19T04:33:44;100892.22;;;5.89;81.62
77303;BME280;66363;49.828;7.856;2023-05-19T04:36:11;100898.72;;;6.02;80.95
77303;BME280;66363;49.828;7.856;2023-05-19T04:38:38;100882.44;;;5.92;81.22
77303;BME280;66363;49.828;7.856;2023-05-19T04:41:03;100898.31;;;6.12;80.20
77303;BME280;66363;49.828;7.856;2023-05-19T04:43:29;100901.91;;;6.10;80.01
77303;BME280;66363;49.828;7.856;2023-05-19T04:45:54;100891.78;;;5.99;80.31
77303;BME280;66363;49.828;7.856;2023-05-19T04:48:20;100907.56;;;6.23;80.30
77303;BME280;66363;49.828;7.856;2023-05-19T04:50:46;100891.38;;;6.10;80.63
77303;BME280;66363;49.828;7.856;2023-05-19T04:53:13;100904.44;;;6.13;80.21
77303;BME280;66363;49.828;7.856;2023-05-19T04:55:38;100908.50;;;6.22;80.28
77303;BME280;66363;49.828;7.856;2023-05-19T04:58:04;100882.38;;;6.16;80.21
77303;BME280;66363;49.828;7.856;2023-05-19T05:00:30;100907.97;;;6.34;79.84
77303;BME280;66363;49.828;7.856;2023-05-19T05:02:55;100904.91;;;6.44;79.83
77303;BME280;66363;49.828;7.856;2023-05-19T05:05:21;100876.91;;;6.42;79.13
77303;BME280;66363;49.828;7.856;2023-05-19T05:07:46;100901.25;;;6.69;78.48
77303;BME280;66363;49.828;7.856;2023-05-19T05:10:13;100903.22;;;6.84;77.81
77303;BME280;66363;49.828;7.856;2023-05-19T05:12:40;100897.75;;;6.89;78.20
77303;BME280;66363;49.828;7.856;2023-05-19T05:15:06;100899.22;;;6.96;77.64
77303;BME280;66363;49.828;7.856;2023-05-19T05:17:33;100874.34;;;6.81;76.68
77303;BME280;66363;49.828;7.856;2023-05-19T05:19:59;100895.00;;;6.92;77.80
77303;BME280;66363;49.828;7.856;2023-05-19T05:22:25;100907.56;;;7.05;77.31
77303;BME280;66363;49.828;7.856;2023-05-19T05:24:51;100899.13;;;7.18;76.36
77303;BME280;66363;49.828;7.856;2023-05-19T05:27:18;100898.75;;;7.27;76.12
77303;BME280;66363;49.828;7.856;2023-05-19T05:29:44;100897.25;;;7.40;75.81
77303;BME280;66363;49.828;7.856;2023-05-19T05:32:10;100902.41;;;7.62;75.10
77303;BME280;66363;49.828;7.856;2023-05-19T05:34:35;100898.22;;;7.76;74.67
77303;BME280;66363;49.828;7.856;2023-05-19T05:37:01;100897.78;;;8.04;73.44
77303;BME280;66363;49.828;7.856;2023-05-19T05:39:26;100897.75;;;8.23;73.80
77303;BME280;66363;49.828;7.856;2023-05-19T05:41:52;100878.56;;;8.37;73.10
77303;BME280;66363;49.828;7.856;2023-05-19T05:44:19;100897.06;;;8.73;71.25
77303;BME280;66363;49.828;7.856;2023-05-19T05:46:45;100888.66;;;8.82;70.94
77303;BME280;66363;49.828;7.856;2023-05-19T05:49:11;100862.41;;;8.95;70.79
77303;BME280;66363;49.828;7.856;2023-05-19T05:51:37;100890.53;;;9.30;70.19
77303;BME280;66363;49.828;7.856;2023-05-19T05:54:05;100880.03;;;9.44;70.10
77303;BME280;66363;49.828;7.856;2023-05-19T05:56:32;100891.78;;;9.87;68.32
77303;BME280;66363;49.828;7.856;2023-05-19T05:58:57;100881.56;;;10.13;68.15
77303;BME280;66363;49.828;7.856;2023-05-19T06:01:24;100893.66;;;10.48;67.49
77303;BME280;66363;49.828;7.856;2023-05-19T06:03:50;100865.09;;;10.68;65.17
77303;BME280;66363;49.828;7.856;2023-05-19T06:06:16;100870.09;;;11.02;63.04
77303;BME280;66363;49.828;7.856;2023-05-19T06:08:41;100888.34;;;11.37;60.59
77303;BME280;66363;49.828;7.856;2023-05-19T06:11:07;100885.22;;;11.59;61.62
77303;BME280;66363;49.828;7.856;2023-05-19T06:13:33;100881.13;;;11.81;58.97
77303;BME280;66363;49.828;7.856;2023-05-19T06:15:59;100867.50;;;12.00;57.92
77303;BME280;66363;49.828;7.856;2023-05-19T06:18:26;100866.09;;;12.21;57.21
77303;BME280;66363;49.828;7.856;2023-05-19T06:20:51;100860.25;;;12.43;58.37
77303;BME280;66363;49.828;7.856;2023-05-19T06:23:17;100861.31;;;12.53;57.55
77303;BME280;66363;49.828;7.856;2023-05-19T06:25:43;100866.59;;;12.68;58.22
77303;BME280;66363;49.828;7.856;2023-05-19T06:28:08;100854.47;;;13.02;56.12
77303;BME280;66363;49.828;7.856;2023-05-19T06:30:34;100868.38;;;13.19;55.91
77303;BME280;66363;49.828;7.856;2023-05-19T06:32:59;100868.88;;;13.37;55.37
77303;BME280;66363;49.828;7.856;2023-05-19T06:35:26;100866.44;;;13.47;55.83
77303;BME280;66363;49.828;7.856;2023-05-19T06:37:52;100852.31;;;13.57;54.66
77303;BME280;66363;49.828;7.856;2023-05-19T06:40:17;100870.88;;;13.72;54.74
77303;BME280;66363;49.828;7.856;2023-05-19T06:42:43;100860.00;;;13.75;53.84
77303;BME280;66363;49.828;7.856;2023-05-19T06:45:09;100853.09;;;13.96;52.22
77303;BME280;66363;49.828;7.856;2023-05-19T06:47:35;100865.06;;;14.14;53.45
77303;BME280;66363;49.828;7.856;2023-05-19T06:50:00;100864.75;;;14.19;50.81
77303;BME280;66363;49.828;7.856;2023-05-19T06:52:27;100859.31;;;14.44;51.98
77303;BME280;66363;49.828;7.856;2023-05-19T06:54:53;100832.56;;;14.68;51.47
77303;BME280;66363;49.828;7.856;2023-05-19T06:57:18;100837.72;;;14.93;50.73
77303;BME280;66363;49.828;7.856;2023-05-19T06:59:44;100848.22;;;15.19;49.58
77303;BME280;66363;49.828;7.856;2023-05-19T07:02:10;100859.56;;;15.56;48.10
77303;BME280;66363;49.828;7.856;2023-05-19T07:04:35;100852.25;;;15.69;49.21
77303;BME280;66363;49.828;7.856;2023-05-19T07:07:01;100856.03;;;15.67;48.94
77303;BME280;66363;49.828;7.856;2023-05-19T07:09:28;100855.59;;;16.05;47.90
77303;BME280;66363;49.828;7.856;2023-05-19T07:11:56;100840.22;;;16.18;46.26
77303;BME280;66363;49.828;7.856;2023-05-19T07:14:22;100850.91;;;16.61;47.16
77303;BME280;66363;49.828;7.856;2023-05-19T07:16:48;100847.19;;;16.94;45.69
77303;BME280;66363;49.828;7.856;2023-05-19T07:19:13;100842.19;;;16.80;45.90
77303;BME280;66363;49.828;7.856;2023-05-19T07:21:39;100835.81;;;16.28;43.56
77303;BME280;66363;49.828;7.856;2023-05-19T07:24:05;100852.88;;;16.16;45.17
77303;BME280;66363;49.828;7.856;2023-05-19T07:26:32;100849.59;;;16.23;45.35
77303;BME280;66363;49.828;7.856;2023-05-19T07:28:58;100854.72;;;16.79;44.82
77303;BME280;66363;49.828;7.856;2023-05-19T07:31:23;100831.56;;;16.99;45.42
77303;BME280;66363;49.828;7.856;2023-05-19T07:33:49;100843.25;;;17.19;44.61
77303;BME280;66363;49.828;7.856;2023-05-19T07:36:14;100831.53;;;17.20;42.75
77303;BME280;66363;49.828;7.856;2023-05-19T07:38:40;100842.53;;;17.47;43.19
77303;BME280;66363;49.828;7.856;2023-05-19T07:41:06;100832.91;;;17.45;43.46
77303;BME280;66363;49.828;7.856;2023-05-19T07:43:34;100832.38;;;17.51;42.15
77303;BME280;66363;49.828;7.856;2023-05-19T07:45:59;100840.13;;;17.65;40.12
77303;BME280;66363;49.828;7.856;2023-05-19T07:48:25;100825.66;;;17.26;43.61
77303;BME280;66363;49.828;7.856;2023-05-19T07:50:51;100826.50;;;17.26;40.42
77303;BME280;66363;49.828;7.856;2023-05-19T07:53:17;100837.91;;;16.98;41.19
77303;BME280;66363;49.828;7.856;2023-05-19T07:55:43;100833.78;;;17.45;41.33
77303;BME280;66363;49.828;7.856;2023-05-19T07:58:08;100836.38;;;17.96;42.04
77303;BME280;66363;49.828;7.856;2023-05-19T08:00:35;100836.81;;;17.92;39.29
77303;BME280;66363;49.828;7.856;2023-05-19T08:03:01;100825.75;;;17.95;42.19
77303;BME280;66363;49.828;7.856;2023-05-19T08:05:29;100837.25;;;18.26;39.42
77303;BME280;66363;49.828;7.856;2023-05-19T08:07:55;100831.59;;;18.58;38.52
77303;BME280;66363;49.828;7.856;2023-05-19T08:10:21;100834.78;;;19.19;36.40
77303;BME280;66363;49.828;7.856;2023-05-19T08:12:46;100836.81;;;18.98;35.33
77303;BME280;66363;49.828;7.856;2023-05-19T08:15:12;100839.47;;;19.64;35.25
77303;BME280;66363;49.828;7.856;2023-05-19T08:17:39;100824.56;;;19.70;35.01
77303;BME280;66363;49.828;7.856;2023-05-19T08:20:05;100830.03;;;20.23;36.16
77303;BME280;66363;49.828;7.856;2023-05-19T08:22:31;100832.44;;;20.44;36.12
77303;BME280;66363;49.828;7.856;2023-05-19T08:24:56;100830.09;;;20.66;34.94
77303;BME280;66363;49.828;7.856;2023-05-19T08:27:22;100822.09;;;21.00;33.71
77303;BME280;66363;49.828;7.856;2023-05-19T08:29:48;100831.41;;;21.06;31.79
77303;BME280;66363;49.828;7.856;2023-05-19T08:32:13;100817.06;;;21.23;31.30
77303;BME280;66363;49.828;7.856;2023-05-19T08:34:40;100820.34;;;21.43;34.53
77303;BME280;66363;49.828;7.856;2023-05-19T08:37:06;100807.78;;;21.68;33.59
77303;BME280;66363;49.828;7.856;2023-05-19T08:39:31;100812.91;;;22.78;30.59
77303;BME280;66363;49.828;7.856;2023-05-19T08:41:57;100816.59;;;22.28;30.39
77303;BME280;66363;49.828;7.856;2023-05-19T08:44:22;100812.03;;;22.61;29.69
77303;BME280;66363;49.828;7.856;2023-05-19T08:46:48;100789.34;;;23.11;31.59
77303;BME280;66363;49.828;7.856;2023-05-19T08:49:15;100797.75;;;23.32;28.59
77303;BME280;66363;49.828;7.856;2023-05-19T08:51:48;100802.53;;;23.69;30.00
77303;BME280;66363;49.828;7.856;2023-05-19T08:54:16;100800.94;;;24.97;28.04
77303;BME280;66363;49.828;7.856;2023-05-19T08:56:43;100785.50;;;25.27;27.95
77303;BME280;66363;49.828;7.856;2023-05-19T08:59:09;100787.97;;;25.66;26.26
77303;BME280;66363;49.828;7.856;2023-05-19T09:01:36;100789.91;;;24.61;26.97
77303;BME280;66363;49.828;7.856;2023-05-19T09:04:02;100783.56;;;25.65;26.95
77303;BME280;66363;49.828;7.856;2023-05-19T09:06:29;100788.38;;;25.85;25.12
77303;BME280;66363;49.828;7.856;2023-05-19T09:08:56;100774.69;;;26.57;25.65
77303;BME280;66363;49.828;7.856;2023-05-19T09:11:22;100768.78;;;26.11;24.28
77303;BME280;66363;49.828;7.856;2023-05-19T09:13:49;100781.38;;;26.54;24.44
77303;BME280;66363;49.828;7.856;2023-05-19T09:16:15;100757.03;;;26.95;22.64
77303;BME280;66363;49.828;7.856;2023-05-19T09:18:52;100764.56;;;27.34;25.16
77303;BME280;66363;49.828;7.856;2023-05-19T09:21:18;100768.47;;;27.53;23.51
77303;BME280;66363;49.828;7.856;2023-05-19T09:23:46;100750.16;;;28.01;21.85
77303;BME280;66363;49.828;7.856;2023-05-19T09:26:14;100764.31;;;28.25;23.47
77303;BME280;66363;49.828;7.856;2023-05-19T09:28:40;100770.19;;;28.42;23.32
77303;BME280;66363;49.828;7.856;2023-05-19T09:31:06;100757.16;;;28.70;21.90
77303;BME280;66363;49.828;7.856;2023-05-19T09:33:33;100755.91;;;28.33;23.35
77303;BME280;66363;49.828;7.856;2023-05-19T09:36:00;100749.94;;;29.35;20.72
77303;BME280;66363;49.828;7.856;2023-05-19T09:38:25;100739.84;;;29.35;19.97
77303;BME280;66363;49.828;7.856;2023-05-19T09:40:51;100750.16;;;29.85;20.05
77303;BME280;66363;49.828;7.856;2023-05-19T09:43:20;100739.28;;;29.65;19.68
77303;BME280;66363;49.828;7.856;2023-05-19T09:45:46;100750.94;;;29.92;18.51
77303;BME280;66363;49.828;7.856;2023-05-19T09:48:13;100741.19;;;29.00;21.22
77303;BME280;66363;49.828;7.856;2023-05-19T09:50:39;100736.19;;;29.99;20.03
77303;BME280;66363;49.828;7.856;2023-05-19T09:53:05;100723.84;;;30.15;19.84
77303;BME280;66363;49.828;7.856;2023-05-19T09:55:31;100727.09;;;29.03;19.91
77303;BME280;66363;49.828;7.856;2023-05-19T09:57:57;100725.66;;;29.96;19.42
77303;BME280;66363;49.828;7.856;2023-05-19T10:00:25;100721.84;;;30.04;18.82
77303;BME280;66363;49.828;7.856;2023-05-19T10:02:51;100726.31;;;29.92;19.28
77303;BME280;66363;49.828;7.856;2023-05-19T10:05:18;100725.84;;;29.63;18.25
77303;BME280;66363;49.828;7.856;2023-05-19T10:07:45;100724.19;;;30.57;18.14
77303;BME280;66363;49.828;7.856;2023-05-19T10:10:11;100720.66;;;30.93;18.35
77303;BME280;66363;49.828;7.856;2023-05-19T10:12:37;100725.81;;;30.40;18.82
77303;BME280;66363;49.828;7.856;2023-05-19T10:15:04;100715.19;;;31.48;18.16
77303;BME280;66363;49.828;7.856;2023-05-19T10:17:33;100712.47;;;30.68;19.16
77303;BME280;66363;49.828;7.856;2023-05-19T10:20:00;100698.81;;;30.86;18.27
77303;BME280;66363;49.828;7.856;2023-05-19T10:22:25;100713.94;;;31.32;16.71
77303;BME280;66363;49.828;7.856;2023-05-19T10:24:51;100695.81;;;31.13;17.58
77303;BME280;66363;49.828;7.856;2023-05-19T10:27:17;100714.53;;;31.82;15.92
77303;BME280;66363;49.828;7.856;2023-05-19T10:29:48;100693.13;;;32.02;16.85
77303;BME280;66363;49.828;7.856;2023-05-19T10:32:18;100702.22;;;31.73;17.25
77303;BME280;66363;49.828;7.856;2023-05-19T10:34:58;100702.41;;;30.87;17.47
77303;BME280;66363;49.828;7.856;2023-05-19T10:37:33;100688.03;;;31.76;17.40
77303;BME280;66363;49.828;7.856;2023-05-19T10:40:05;100692.97;;;31.86;16.44
77303;BME280;66363;49.828;7.856;2023-05-19T10:42:39;100681.22;;;30.94;16.50
77303;BME280;66363;49.828;7.856;2023-05-19T10:45:10;100675.25;;;31.70;16.91
77303;BME280;66363;49.828;7.856;2023-05-19T10:47:39;100681.13;;;33.09;14.57
77303;BME280;66363;49.828;7.856;2023-05-19T10:50:07;100681.13;;;32.27;15.09
77303;BME280;66363;49.828;7.856;2023-05-19T10:52:36;100686.28;;;31.15;16.07
77303;BME280;66363;49.828;7.856;2023-05-19T10:55:02;100653.59;;;32.03;15.65
77303;BME280;66363;49.828;7.856;2023-05-19T10:57:27;100658.38;;;30.82;16.71
77303;BME280;66363;49.828;7.856;2023-05-19T10:59:54;100678.91;;;31.64;15.97
77303;BME280;66363;49.828;7.856;2023-05-19T11:02:36;100677.38;;;31.50;17.15
77303;BME280;66363;49.828;7.856;2023-05-19T11:05:07;100678.34;;;31.74;17.53
77303;BME280;66363;49.828;7.856;2023-05-19T11:07:33;100683.06;;;32.73;15.98
77303;BME280;66363;49.828;7.856;2023-05-19T11:10:04;100685.97;;;33.70;15.34
77303;BME280;66363;49.828;7.856;2023-05-19T11:12:38;100681.03;;;32.80;14.98
77303;BME280;66363;49.828;7.856;2023-05-19T11:15:06;100676.22;;;30.91;17.11
77303;BME280;66363;49.828;7.856;2023-05-19T11:17:34;100674.38;;;30.85;18.13
77303;BME280;66363;49.828;7.856;2023-05-19T11:20:00;100665.00;;;30.74;17.38
77303;BME280;66363;49.828;7.856;2023-05-19T11:22:27;100656.59;;;30.26;17.68
77303;BME280;66363;49.828;7.856;2023-05-19T11:24:53;100670.72;;;30.23;17.21
77303;BME280;66363;49.828;7.856;2023-05-19T11:27:22;100659.81;;;31.02;16.79
77303;BME280;66363;49.828;7.856;2023-05-19T11:29:49;100666.91;;;31.28;16.93
77303;BME280;66363;49.828;7.856;2023-05-19T11:32:15;100676.81;;;31.11;16.98
77303;BME280;66363;49.828;7.856;2023-05-19T11:34:40;100647.06;;;31.45;15.75
77303;BME280;66363;49.828;7.856;2023-05-19T11:37:08;100663.34;;;32.76;14.59
77303;BME280;66363;49.828;7.856;2023-05-19T11:39:35;100672.19;;;32.43;14.20
77303;BME280;66363;49.828;7.856;2023-05-19T11:42:01;100660.72;;;32.58;14.48
77303;BME280;66363;49.828;7.856;2023-05-19T11:44:27;100654.06;;;33.17;12.63
77303;BME280;66363;49.828;7.856;2023-05-19T11:46:52;100634.84;;;33.46;14.91
77303;BME280;66363;49.828;7.856;2023-05-19T11:49:18;100643.00;;;33.41;15.52
77303;BME280;66363;49.828;7.856;2023-05-19T11:51:44;100643.03;;;32.77;14.41
77303;BME280;66363;49.828;7.856;2023-05-19T11:54:10;100639.47;;;34.35;12.97
77303;BME280;66363;49.828;7.856;2023-05-19T11:56:41;100648.88;;;35.17;12.76
77303;BME280;66363;49.828;7.856;2023-05-19T11:59:07;100646.13;;;35.17;13.53
77303;BME280;66363;49.828;7.856;2023-05-19T12:01:33;100635.97;;;35.44;12.63
77303;BME280;66363;49.828;7.856;2023-05-19T12:04:00;100637.59;;;34.58;13.35
77303;BME280;66363;49.828;7.856;2023-05-19T12:06:25;100612.81;;;33.17;13.59
77303;BME280;66363;49.828;7.856;2023-05-19T12:08:52;100644.94;;;31.17;13.99
77303;BME280;66363;49.828;7.856;2023-05-19T12:11:18;100625.41;;;30.02;15.90
77303;BME280;66363;49.828;7.856;2023-05-19T12:13:45;100640.06;;;29.00;16.84
77303;BME280;66363;49.828;7.856;2023-05-19T12:16:11;100636.16;;;29.27;17.35
77303;BME280;66363;49.828;7.856;2023-05-19T12:18:37;100637.91;;;29.60;17.23
77303;BME280;66363;49.828;7.856;2023-05-19T12:21:04;100633.47;;;30.22;18.58
77303;BME280;66363;49.828;7.856;2023-05-19T12:23:33;100637.16;;;30.52;17.44
77303;BME280;66363;49.828;7.856;2023-05-19T12:25:59;100628.75;;;31.27;16.21
77303;BME280;66363;49.828;7.856;2023-05-19T12:28:29;100638.44;;;31.29;15.05
77303;BME280;66363;49.828;7.856;2023-05-19T12:30:56;100621.91;;;30.99;16.09
77303;BME280;66363;49.828;7.856;2023-05-19T12:33:22;100626.63;;;30.31;16.75
77303;BME280;66363;49.828;7.856;2023-05-19T12:35:47;100610.72;;;29.27;17.13
77303;BME280;66363;49.828;7.856;2023-05-19T12:38:13;100622.41;;;29.02;17.12
77303;BME280;66363;49.828;7.856;2023-05-19T12:40:39;100626.13;;;29.15;17.67
77303;BME280;66363;49.828;7.856;2023-05-19T12:43:05;100626.84;;;28.90;18.92
77303;BME280;66363;49.828;7.856;2023-05-19T12:45:33;100624.38;;;28.62;20.06
77303;BME280;66363;49.828;7.856;2023-05-19T12:48:02;100614.25;;;28.89;19.02
77303;BME280;66363;49.828;7.856;2023-05-19T12:50:28;100617.72;;;27.92;20.89
77303;BME280;66363;49.828;7.856;2023-05-19T12:52:54;100617.50;;;27.87;21.27
77303;BME280;66363;49.828;7.856;2023-05-19T12:55:20;100620.88;;;27.15;21.30
77303;BME280;66363;49.828;7.856;2023-05-19T12:57:48;100625.56;;;26.87;22.73